Terminal Aerodrome Forecast
Issued by NWS

Home | Current Version | Previous Version | Text Only | Print | Product List | Glossary On
Versions: 1 2 3 4 5 6 7 8 9 10 11 12 13 14 15 16 17 18 19
899
FTUS43 KIND 251720
TAFBMG
TAF
KBMG 251720Z 2518/2618 01008KT P6SM SCT025
     FM251900 35007KT P6SM BKN045
     FM252000 36007KT P6SM SCT080=

USA.gov is the U.S. government's official web portal to all federal, state and local government web resources and services.